createdAt,value
2019-01-17T00:00:24.691Z,54.82
2019-01-17T00:03:26.856Z,54.78
2019-01-17T00:06:05.952Z,54.78
2019-01-17T00:08:51.633Z,54.83
2019-01-17T00:11:41.654Z,54.83
2019-01-17T00:14:33.230Z,55.11
2019-01-17T00:17:20.540Z,55.11
2019-01-17T00:20:09.262Z,55.29
2019-01-17T00:22:56.924Z,55.59
2019-01-17T00:25:45.921Z,55.59
2019-01-17T00:28:33.822Z,55.52
2019-01-17T00:31:13.128Z,55.29
2019-01-17T00:34:14.427Z,55.00
2019-01-17T00:37:01.339Z,54.89
2019-01-17T00:39:37.149Z,55.03
2019-01-17T00:42:33.847Z,54.90
2019-01-17T00:45:37.495Z,54.74
2019-01-17T00:51:29.964Z,54.95
2019-01-17T00:54:15.818Z,54.88
2019-01-17T00:57:02.290Z,54.88
2019-01-17T00:59:48.761Z,54.67
2019-01-17T01:02:35.109Z,54.69
2019-01-17T01:05:27.013Z,54.94
2019-01-17T01:08:23.232Z,55.26
2019-01-17T01:11:15.059Z,55.26
2019-01-17T01:13:57.298Z,56.03
2019-01-17T01:16:51.747Z,56.35
2019-01-17T01:19:58.425Z,56.14
2019-01-17T01:22:46.199Z,55.90
2019-01-17T01:25:38.133Z,55.90
2019-01-17T01:28:27.455Z,56.46
2019-01-17T01:31:16.523Z,56.46
2019-01-17T01:34:03.895Z,56.82
2019-01-17T01:36:50.325Z,55.67
2019-01-17T01:39:31.528Z,55.67
2019-01-17T01:42:13.247Z,56.00
2019-01-17T01:44:54.224Z,55.43
2019-01-17T01:47:39.666Z,55.24
2019-01-17T01:50:41.690Z,55.00
2019-01-17T01:53:08.923Z,55.00
2019-01-17T01:55:36.136Z,55.00
2019-01-17T01:58:03.503Z,55.00
2019-01-17T02:00:30.713Z,54.82
2019-01-17T02:02:57.954Z,54.82
2019-01-17T02:05:25.151Z,55.08
2019-01-17T02:07:52.368Z,54.71
2019-01-17T02:10:19.634Z,54.71
2019-01-17T02:12:46.823Z,54.84
2019-01-17T02:15:14.033Z,54.84
2019-01-17T02:17:41.270Z,54.77
2019-01-17T02:20:08.581Z,54.75
2019-01-17T02:22:35.763Z,54.63
2019-01-17T02:25:03.557Z,54.63
2019-01-17T02:27:30.767Z,54.59
2019-01-17T02:29:57.978Z,54.50
2019-01-17T02:32:25.151Z,54.40
2019-01-17T02:34:52.397Z,54.61
2019-01-17T02:37:19.555Z,54.76
2019-01-17T02:39:46.738Z,54.76
2019-01-17T02:42:13.973Z,54.41
2019-01-17T02:44:41.174Z,55.22
2019-01-17T02:47:09.026Z,54.93
2019-01-17T02:49:36.217Z,54.93
2019-01-17T02:52:03.409Z,55.15
2019-01-17T02:54:35.679Z,54.88
2019-01-17T02:56:59.663Z,54.90
2019-01-17T02:59:26.984Z,54.96
2019-01-17T03:01:54.184Z,54.90
2019-01-17T03:04:21.387Z,55.12
2019-01-17T03:06:48.740Z,55.12
2019-01-17T03:09:15.934Z,55.09
2019-01-17T03:11:43.142Z,55.37
2019-01-17T03:14:10.500Z,55.37
2019-01-17T03:16:37.679Z,55.31
2019-01-17T03:19:04.875Z,55.30
2019-01-17T03:21:32.089Z,55.62
2019-01-17T03:23:59.270Z,55.86
2019-01-17T03:26:26.523Z,55.83
2019-01-17T03:28:53.699Z,55.83
2019-01-17T03:31:20.979Z,55.95
2019-01-17T03:33:48.175Z,55.95
2019-01-17T03:36:15.332Z,56.35
2019-01-17T03:38:42.578Z,56.51
2019-01-17T03:41:09.737Z,56.66
2019-01-17T03:43:36.920Z,56.48
2019-01-17T03:46:04.151Z,56.45
2019-01-17T03:48:31.530Z,56.94
2019-01-17T03:50:58.771Z,56.94
2019-01-17T03:53:25.978Z,56.71
2019-01-17T03:55:53.589Z,56.71
2019-01-17T03:58:20.817Z,57.09
2019-01-17T04:00:48.139Z,57.09
2019-01-17T04:03:15.400Z,57.09
2019-01-17T04:05:42.578Z,56.92
2019-01-17T04:08:09.779Z,56.80
2019-01-17T04:10:36.982Z,56.58
2019-01-17T04:13:04.307Z,56.58
2019-01-17T04:15:31.584Z,56.66
2019-01-17T04:17:58.773Z,56.53
2019-01-17T04:20:26.117Z,56.65
2019-01-17T04:22:53.287Z,56.17
2019-01-17T04:25:20.490Z,56.17
2019-01-17T04:27:47.709Z,56.34
2019-01-17T04:30:16.859Z,56.60
2019-01-17T04:32:44.017Z,56.60
2019-01-17T04:35:11.279Z,56.61
2019-01-17T04:37:38.472Z,56.28
2019-01-17T04:40:06.552Z,56.28
2019-01-17T04:42:33.789Z,56.08
2019-01-17T04:45:01.007Z,56.12
2019-01-17T04:47:28.226Z,56.47
2019-01-17T04:49:55.441Z,57.06
2019-01-17T04:52:22.568Z,56.54
2019-01-17T04:54:49.794Z,56.78
2019-01-17T04:57:17.014Z,56.26
2019-01-17T04:59:44.219Z,55.57
2019-01-17T05:02:11.463Z,55.57
2019-01-17T05:04:38.868Z,56.17
2019-01-17T05:07:06.124Z,55.84
2019-01-17T05:09:33.325Z,55.35
2019-01-17T05:12:00.522Z,55.79
2019-01-17T05:14:27.727Z,55.79
2019-01-17T05:16:54.922Z,55.25
2019-01-17T05:19:22.128Z,55.49
2019-01-17T05:21:49.336Z,55.49
2019-01-17T05:24:16.554Z,56.51
2019-01-17T05:26:43.740Z,56.45
2019-01-17T05:29:11.052Z,56.45
2019-01-17T05:31:38.274Z,56.87
2019-01-17T05:34:05.458Z,56.77
2019-01-17T05:36:32.679Z,56.02
2019-01-17T05:38:59.848Z,56.02
2019-01-17T05:41:27.099Z,55.93
2019-01-17T05:43:54.360Z,56.43
2019-01-17T05:46:21.609Z,55.79
2019-01-17T05:48:48.957Z,55.79
2019-01-17T05:51:16.120Z,56.66
2019-01-17T05:53:43.364Z,56.58
2019-01-17T05:56:10.589Z,56.05
2019-01-17T05:58:37.917Z,56.82
2019-01-17T06:01:05.098Z,56.82
2019-01-17T06:03:32.406Z,56.56
2019-01-17T06:05:59.715Z,56.37
2019-01-17T06:08:26.985Z,56.37
2019-01-17T06:10:54.185Z,55.14
2019-01-17T06:13:21.403Z,55.14
2019-01-17T06:15:48.889Z,54.62
2019-01-17T06:18:16.089Z,54.62
2019-01-17T06:20:43.291Z,54.63
2019-01-17T06:23:10.505Z,54.63
2019-01-17T06:25:37.678Z,54.61
2019-01-17T06:28:04.920Z,54.61
2019-01-17T06:30:32.107Z,54.74
2019-01-17T06:32:59.345Z,54.68
2019-01-17T06:35:26.552Z,54.36
2019-01-17T06:37:53.737Z,54.22
2019-01-17T06:40:24.095Z,54.22
2019-01-17T06:42:51.311Z,54.18
2019-01-17T06:45:18.507Z,54.18
2019-01-17T06:47:45.949Z,54.17
2019-01-17T06:50:13.263Z,54.68
2019-01-17T06:52:41.186Z,55.65
2019-01-17T06:55:08.569Z,55.65
2019-01-17T06:57:35.971Z,55.16
2019-01-17T07:00:03.874Z,55.43
2019-01-17T07:02:31.076Z,55.43
2019-01-17T07:04:58.290Z,55.39
2019-01-17T07:07:25.547Z,55.51
2019-01-17T07:09:55.220Z,55.77
2019-01-17T07:12:22.584Z,55.77
2019-01-17T07:14:49.824Z,55.76
2019-01-17T07:17:17.171Z,55.48
2019-01-17T07:19:44.386Z,54.92
2019-01-17T07:22:11.591Z,54.92
2019-01-17T07:24:38.937Z,54.38
2019-01-17T07:27:06.112Z,54.51
2019-01-17T07:29:33.344Z,54.39
2019-01-17T07:32:00.587Z,54.42
2019-01-17T07:34:27.795Z,54.42
2019-01-17T07:36:55.461Z,54.11
2019-01-17T07:39:23.584Z,54.11
2019-01-17T07:41:50.767Z,54.24
2019-01-17T07:44:18.012Z,54.10
2019-01-17T07:46:45.319Z,53.68
2019-01-17T07:49:12.520Z,53.58
2019-01-17T07:51:39.815Z,53.85
2019-01-17T07:54:07.018Z,53.85
2019-01-17T07:56:34.354Z,53.29
2019-01-17T07:59:01.507Z,53.19
2019-01-17T08:01:28.704Z,53.41
2019-01-17T08:03:55.926Z,53.25
2019-01-17T08:06:23.249Z,53.24
2019-01-17T08:08:50.484Z,53.12
2019-01-17T08:11:17.700Z,52.94
2019-01-17T08:13:44.908Z,53.18
2019-01-17T08:16:12.195Z,53.07
2019-01-17T08:18:39.432Z,53.00
2019-01-17T08:21:06.680Z,53.03
2019-01-17T08:23:34.765Z,52.92
2019-01-17T08:26:02.709Z,52.98
2019-01-17T08:28:29.895Z,52.62
2019-01-17T08:30:57.109Z,52.95
2019-01-17T08:33:24.414Z,52.68
2019-01-17T08:35:51.655Z,52.66
2019-01-17T08:38:18.851Z,52.71
2019-01-17T08:40:46.063Z,52.50
2019-01-17T08:43:13.337Z,52.62
2019-01-17T08:45:40.584Z,52.10
2019-01-17T08:48:07.811Z,52.10
2019-01-17T08:50:35.037Z,52.63
2019-01-17T08:53:02.366Z,52.25
2019-01-17T08:55:29.587Z,52.24
2019-01-17T08:57:56.835Z,52.12
2019-01-17T09:00:24.378Z,52.12
2019-01-17T09:02:51.741Z,51.97
2019-01-17T09:05:18.900Z,51.94
2019-01-17T09:07:46.250Z,51.57
2019-01-17T09:10:16.730Z,51.57
2019-01-17T09:12:44.873Z,51.90
2019-01-17T09:15:13.063Z,51.92
2019-01-17T09:17:40.274Z,51.90
2019-01-17T09:20:09.993Z,51.85
2019-01-17T09:22:37.194Z,51.91
2019-01-17T09:25:05.419Z,51.86
2019-01-17T09:27:32.626Z,51.49
2019-01-17T09:29:59.854Z,51.49
2019-01-17T09:32:27.037Z,52.02
2019-01-17T09:34:54.225Z,52.02
2019-01-17T09:37:21.415Z,51.72
2019-01-17T09:39:48.625Z,51.56
2019-01-17T09:42:16.237Z,51.54
2019-01-17T09:44:43.688Z,50.76
2019-01-17T09:47:10.967Z,50.76
2019-01-17T09:49:38.187Z,51.13
2019-01-17T09:52:05.377Z,50.92
2019-01-17T09:54:32.567Z,50.92
2019-01-17T09:56:59.761Z,50.94
2019-01-17T09:59:26.985Z,50.73
2019-01-17T10:01:54.268Z,50.78
2019-01-17T10:04:22.114Z,51.02
2019-01-17T10:06:50.664Z,50.40
2019-01-17T10:09:17.876Z,50.51
2019-01-17T10:11:45.083Z,50.51
2019-01-17T10:14:12.310Z,50.56
2019-01-17T10:17:03.987Z,50.45
2019-01-17T10:20:08.919Z,50.45
2019-01-17T10:23:29.858Z,50.37
2019-01-17T10:26:42.029Z,50.37
2019-01-17T10:29:39.068Z,50.59
2019-01-17T10:32:44.680Z,50.52
2019-01-17T10:35:43.109Z,50.39
2019-01-17T10:39:10.306Z,50.13
2019-01-17T10:42:04.777Z,50.33
2019-01-17T10:45:32.102Z,50.24
2019-01-17T10:48:49.387Z,50.24
2019-01-17T10:51:36.854Z,50.15
2019-01-17T10:54:37.944Z,50.43
2019-01-17T10:57:29.729Z,50.43
2019-01-17T11:00:28.693Z,50.31
2019-01-17T11:03:44.217Z,50.29
2019-01-17T11:06:41.325Z,50.24
2019-01-17T11:09:45.877Z,50.20
2019-01-17T11:12:39.976Z,50.21
2019-01-17T11:15:33.172Z,50.09
2019-01-17T11:18:34.490Z,49.98
2019-01-17T11:21:43.468Z,50.53
2019-01-17T11:24:44.974Z,51.03
2019-01-17T11:27:48.960Z,51.13
2019-01-17T11:31:04.007Z,51.40
2019-01-17T11:34:02.650Z,51.40
2019-01-17T11:37:13.650Z,51.39
2019-01-17T11:40:12.993Z,51.20
2019-01-17T11:43:16.370Z,50.99
2019-01-17T11:45:55.517Z,50.99
2019-01-17T11:49:06.701Z,51.02
2019-01-17T11:52:31.233Z,51.01
2019-01-17T11:55:55.146Z,51.07
2019-01-17T11:59:06.194Z,51.07
2019-01-17T12:02:11.778Z,51.46
2019-01-17T12:04:37.988Z,50.90
2019-01-17T12:07:07.630Z,51.26
2019-01-17T12:09:35.634Z,51.26
2019-01-17T12:12:04.176Z,51.89
2019-01-17T12:14:32.511Z,51.89
2019-01-17T12:16:59.841Z,52.10
2019-01-17T12:19:27.253Z,52.00
2019-01-17T12:21:54.627Z,51.46
2019-01-17T12:24:22.046Z,51.77
2019-01-17T12:26:49.593Z,51.54
2019-01-17T12:29:16.830Z,51.11
2019-01-17T12:31:44.039Z,51.34
2019-01-17T12:34:11.357Z,51.34
2019-01-17T12:36:38.615Z,50.81
2019-01-17T12:39:08.068Z,50.52
2019-01-17T12:41:35.374Z,50.82
2019-01-17T12:44:02.935Z,50.82
2019-01-17T12:46:30.172Z,51.03
2019-01-17T12:48:57.661Z,50.96
2019-01-17T12:51:24.990Z,50.58
2019-01-17T12:53:52.240Z,50.58
2019-01-17T12:56:19.819Z,50.63
2019-01-17T12:58:47.068Z,50.66
2019-01-17T13:01:14.281Z,50.62
2019-01-17T13:03:41.490Z,50.55
2019-01-17T13:06:08.754Z,50.55
2019-01-17T13:08:35.925Z,50.54
2019-01-17T13:11:03.425Z,50.26
2019-01-17T13:13:30.642Z,50.26
2019-01-17T13:15:57.810Z,50.45
2019-01-17T13:18:25.048Z,50.49
2019-01-17T13:20:52.221Z,50.91
2019-01-17T13:23:19.394Z,51.40
2019-01-17T13:25:46.626Z,51.40
2019-01-17T13:28:13.782Z,50.91
2019-01-17T13:30:41.042Z,51.19
2019-01-17T13:33:08.948Z,51.21
2019-01-17T13:35:36.170Z,51.25
2019-01-17T13:38:03.462Z,50.34
2019-01-17T13:40:30.695Z,50.34
2019-01-17T13:42:57.876Z,50.87
2019-01-17T13:45:25.273Z,51.13
2019-01-17T13:47:52.469Z,51.13
2019-01-17T13:50:19.776Z,50.90
2019-01-17T13:52:47.041Z,51.03
2019-01-17T13:55:14.714Z,51.09
2019-01-17T13:57:42.024Z,51.05
2019-01-17T14:00:17.694Z,50.76
2019-01-17T14:02:44.947Z,50.86
2019-01-17T14:05:12.407Z,50.79
2019-01-17T14:07:39.625Z,50.85
2019-01-17T14:10:07.351Z,50.65
2019-01-17T14:12:34.523Z,50.75
2019-01-17T14:15:01.731Z,50.64
2019-01-17T14:17:29.260Z,50.55
2019-01-17T14:19:56.574Z,50.59
2019-01-17T14:22:23.765Z,50.26
2019-01-17T14:24:50.996Z,50.29
2019-01-17T14:27:18.173Z,50.40
2019-01-17T14:29:45.418Z,50.19
2019-01-17T14:32:12.619Z,50.39
2019-01-17T14:34:39.803Z,50.45
2019-01-17T14:37:07.038Z,50.33
2019-01-17T14:39:34.258Z,50.25
2019-01-17T14:42:01.502Z,50.17
2019-01-17T14:44:28.700Z,50.10
2019-01-17T14:46:56.088Z,50.02
2019-01-17T14:49:23.255Z,50.24
2019-01-17T14:51:50.426Z,50.18
2019-01-17T14:54:17.633Z,49.99
2019-01-17T14:56:44.819Z,50.10
2019-01-17T14:59:12.013Z,50.21
2019-01-17T15:01:39.560Z,50.32
2019-01-17T15:04:06.799Z,50.22
2019-01-17T15:06:34.011Z,50.44
2019-01-17T15:09:01.238Z,50.44
2019-01-17T15:11:28.411Z,50.46
2019-01-17T15:13:55.619Z,50.33
2019-01-17T15:16:22.824Z,50.34
2019-01-17T15:18:50.005Z,50.39
2019-01-17T15:21:17.207Z,50.43
2019-01-17T15:23:44.397Z,50.49
2019-01-17T15:26:11.597Z,50.54
2019-01-17T15:28:38.805Z,50.43
2019-01-17T15:31:06.042Z,50.47
2019-01-17T15:33:33.216Z,50.44
2019-01-17T15:36:00.407Z,50.42
2019-01-17T15:38:27.652Z,50.80
2019-01-17T15:40:54.848Z,50.80
2019-01-17T15:43:22.059Z,50.51
2019-01-17T15:45:49.333Z,50.54
2019-01-17T15:48:16.533Z,50.82
2019-01-17T15:50:43.738Z,50.55
2019-01-17T15:53:10.962Z,50.55
2019-01-17T15:55:38.180Z,50.56
2019-01-17T15:58:05.513Z,50.53
2019-01-17T16:00:32.818Z,50.57
2019-01-17T16:03:00.078Z,50.50
2019-01-17T16:05:27.257Z,50.42
2019-01-17T16:07:54.616Z,50.29
2019-01-17T16:10:21.871Z,50.18
2019-01-17T16:12:49.040Z,50.18
2019-01-17T16:15:21.273Z,50.57
2019-01-17T16:17:48.616Z,50.58
2019-01-17T16:20:15.836Z,50.64
2019-01-17T16:22:43.026Z,50.58
2019-01-17T16:25:11.312Z,50.54
2019-01-17T16:27:41.784Z,50.58
2019-01-17T16:30:11.799Z,50.57
2019-01-17T16:32:39.005Z,50.35
2019-01-17T16:35:06.213Z,50.35
2019-01-17T16:37:33.440Z,50.59
2019-01-17T16:40:00.639Z,50.59
2019-01-17T16:42:27.852Z,50.50
2019-01-17T16:44:55.079Z,50.35
2019-01-17T16:47:22.313Z,50.07
2019-01-17T16:49:49.528Z,50.44
2019-01-17T16:52:16.772Z,50.17
2019-01-17T16:54:43.968Z,50.18
2019-01-17T16:57:11.425Z,50.43
2019-01-17T16:59:38.573Z,50.43
2019-01-17T17:02:05.766Z,50.25
2019-01-17T17:04:32.989Z,50.17
2019-01-17T17:07:00.261Z,50.54
2019-01-17T17:09:27.452Z,50.54
2019-01-17T17:11:54.698Z,50.33
2019-01-17T17:14:21.891Z,51.00
2019-01-17T17:16:49.047Z,50.70
2019-01-17T17:19:16.292Z,50.55
2019-01-17T17:21:43.494Z,50.54
2019-01-17T17:24:10.758Z,50.89
2019-01-17T17:26:37.950Z,50.54
2019-01-17T17:29:05.182Z,50.54
2019-01-17T17:31:32.399Z,50.84
2019-01-17T17:33:59.597Z,50.94
2019-01-17T17:36:26.811Z,50.98
2019-01-17T17:38:53.982Z,50.98
2019-01-17T17:41:21.189Z,51.08
2019-01-17T17:43:48.378Z,51.06
2019-01-17T17:46:15.880Z,51.32
2019-01-17T17:48:43.263Z,51.32
2019-01-17T17:51:10.454Z,50.98
2019-01-17T17:53:38.220Z,51.25
2019-01-17T17:56:05.958Z,51.25
2019-01-17T17:58:33.194Z,51.08
2019-01-17T18:01:12.929Z,51.13
2019-01-17T18:03:40.148Z,51.00
2019-01-17T18:06:07.471Z,50.96
2019-01-17T18:08:34.711Z,51.25
2019-01-17T18:11:02.000Z,51.29
2019-01-17T18:13:29.172Z,51.29
2019-01-17T18:15:56.482Z,51.60
2019-01-17T18:18:23.672Z,51.85
2019-01-17T18:20:51.013Z,51.72
2019-01-17T18:23:18.207Z,51.86
2019-01-17T18:25:45.562Z,52.05
2019-01-17T18:28:12.816Z,52.05
2019-01-17T18:30:40.109Z,51.91
2019-01-17T18:33:07.779Z,51.80
2019-01-17T18:35:34.997Z,51.80
2019-01-17T18:38:02.371Z,52.07
2019-01-17T18:40:29.705Z,52.06
2019-01-17T18:43:00.305Z,52.12
2019-01-17T18:45:27.600Z,52.20
2019-01-17T18:47:54.844Z,52.36
2019-01-17T18:50:24.499Z,52.36
2019-01-17T18:52:51.717Z,51.98
2019-01-17T18:55:18.903Z,52.05
2019-01-17T18:57:46.107Z,52.01
2019-01-17T19:00:20.885Z,52.18
2019-01-17T19:02:48.314Z,52.10
2019-01-17T19:05:17.296Z,52.01
2019-01-17T19:07:44.553Z,52.09
2019-01-17T19:10:11.866Z,51.88
2019-01-17T19:12:39.073Z,51.77
2019-01-17T19:15:08.391Z,52.05
2019-01-17T19:17:35.593Z,52.78
2019-01-17T19:20:03.726Z,52.78
2019-01-17T19:22:30.934Z,52.92
2019-01-17T19:24:58.318Z,52.89
2019-01-17T19:27:25.539Z,52.54
2019-01-17T19:29:52.831Z,52.62
2019-01-17T19:32:20.142Z,52.66
2019-01-17T19:34:47.322Z,52.27
2019-01-17T19:37:22.024Z,52.27
2019-01-17T19:39:49.117Z,52.34
2019-01-17T19:42:16.497Z,52.34
2019-01-17T19:44:43.793Z,52.30
2019-01-17T19:47:11.372Z,52.58
2019-01-17T19:49:40.640Z,52.61
2019-01-17T19:52:09.593Z,52.57
2019-01-17T19:54:41.646Z,52.52
2019-01-17T19:57:27.696Z,52.48
2019-01-17T19:59:54.858Z,52.21
2019-01-17T20:02:22.079Z,52.21
2019-01-17T20:04:49.307Z,52.44
2019-01-17T20:07:16.526Z,52.59
2019-01-17T20:09:43.743Z,52.37
2019-01-17T20:12:10.938Z,52.42
2019-01-17T20:14:38.112Z,52.51
2019-01-17T20:17:05.425Z,52.33
2019-01-17T20:19:32.647Z,52.50
2019-01-17T20:21:59.808Z,52.50
2019-01-17T20:24:27.039Z,52.56
2019-01-17T20:26:54.244Z,52.33
2019-01-17T20:29:21.476Z,52.28
2019-01-17T20:31:48.697Z,52.68
2019-01-17T20:34:15.895Z,52.68
2019-01-17T20:36:50.091Z,52.21
2019-01-17T20:39:32.839Z,52.21
2019-01-17T20:42:00.036Z,52.44
2019-01-17T20:44:27.220Z,52.46
2019-01-17T20:46:54.518Z,52.96
2019-01-17T20:49:24.776Z,52.96
2019-01-17T20:51:52.029Z,53.49
2019-01-17T20:54:20.095Z,53.29
2019-01-17T20:56:48.044Z,53.39
2019-01-17T20:59:15.308Z,53.39
2019-01-17T21:01:52.632Z,53.30
2019-01-17T21:04:20.290Z,53.05
2019-01-17T21:06:47.570Z,53.23
2019-01-17T21:09:15.010Z,53.23
2019-01-17T21:11:42.409Z,53.21
2019-01-17T21:14:09.836Z,53.18
2019-01-17T21:16:38.745Z,52.83
2019-01-17T21:19:06.066Z,53.07
2019-01-17T21:21:34.168Z,53.05
2019-01-17T21:24:01.346Z,53.02
2019-01-17T21:26:28.633Z,53.00
2019-01-17T21:28:56.146Z,52.94
2019-01-17T21:31:23.431Z,52.98
2019-01-17T21:33:51.838Z,53.02
2019-01-17T21:36:19.370Z,53.06
2019-01-17T21:38:46.585Z,53.05
2019-01-17T21:41:14.022Z,53.01
2019-01-17T21:43:44.632Z,53.86
2019-01-17T21:46:11.949Z,53.96
2019-01-17T21:48:39.432Z,53.42
2019-01-17T21:51:08.200Z,53.42
2019-01-17T21:53:37.359Z,53.75
2019-01-17T21:56:06.230Z,53.73
2019-01-17T21:58:33.701Z,53.73
2019-01-17T22:01:01.999Z,53.48
2019-01-17T22:03:29.664Z,54.00
2019-01-17T22:05:58.208Z,53.59
2019-01-17T22:08:25.439Z,53.80
2019-01-17T22:10:53.188Z,53.80
2019-01-17T22:13:20.667Z,53.48
2019-01-17T22:15:48.209Z,53.56
2019-01-17T22:18:16.014Z,53.49
2019-01-17T22:20:45.010Z,53.78
2019-01-17T22:23:14.105Z,53.66
2019-01-17T22:25:53.892Z,53.56
2019-01-17T22:28:26.083Z,53.56
2019-01-17T22:30:55.218Z,54.02
2019-01-17T22:33:25.332Z,54.18
2019-01-17T22:35:53.027Z,55.20
2019-01-17T22:38:21.906Z,54.63
2019-01-17T22:40:50.239Z,54.63
2019-01-17T22:43:20.417Z,54.98
2019-01-17T22:45:49.695Z,54.72
2019-01-17T22:48:17.625Z,55.35
2019-01-17T22:50:45.326Z,55.35
2019-01-17T22:53:13.896Z,55.03
2019-01-17T22:55:41.175Z,55.03
2019-01-17T22:58:08.780Z,54.82
2019-01-17T23:00:58.760Z,54.92
2019-01-17T23:03:32.950Z,54.92
2019-01-17T23:06:00.529Z,56.14
2019-01-17T23:08:28.114Z,55.92
2019-01-17T23:10:55.748Z,56.01
2019-01-17T23:13:23.305Z,56.27
2019-01-17T23:15:51.090Z,56.27
2019-01-17T23:18:19.606Z,55.98
2019-01-17T23:20:46.802Z,56.05
2019-01-17T23:23:14.942Z,56.05
2019-01-17T23:25:42.323Z,55.96
2019-01-17T23:28:12.496Z,56.94
2019-01-17T23:30:46.028Z,56.94
2019-01-17T23:33:13.245Z,56.54
2019-01-17T23:35:40.527Z,56.97
2019-01-17T23:38:07.720Z,56.10
2019-01-17T23:40:34.921Z,56.74
2019-01-17T23:43:02.184Z,56.49
2019-01-17T23:45:29.606Z,56.49
2019-01-17T23:47:56.775Z,56.49
2019-01-17T23:50:23.961Z,56.49
2019-01-17T23:52:51.195Z,56.28
2019-01-17T23:55:18.419Z,56.30
2019-01-17T23:57:45.637Z,56.61
